createdAt,value
2023-03-07T04:00:29.000Z,97.40
2023-03-07T04:02:56.982Z,97.50
2023-03-07T04:05:24.965Z,97.50
2023-03-07T04:07:52.877Z,97.50
2023-03-07T04:10:21.480Z,97.60
2023-03-07T04:12:49.376Z,97.60
2023-03-07T04:15:17.462Z,97.70
2023-03-07T04:17:46.768Z,97.80
2023-03-07T04:20:17.640Z,97.90
2023-03-07T04:22:46.862Z,97.90
2023-03-07T04:25:14.851Z,97.90
2023-03-07T04:27:43.039Z,97.90
2023-03-07T04:30:12.093Z,97.90
2023-03-07T04:32:42.368Z,98.00
2023-03-07T04:35:11.727Z,98.00
2023-03-07T04:37:39.564Z,98.00
2023-03-07T04:40:08.384Z,98.00
2023-03-07T04:42:36.363Z,98.00
2023-03-07T04:45:05.040Z,97.90
2023-03-07T04:47:32.998Z,97.90
2023-03-07T04:50:00.985Z,97.80
2023-03-07T04:52:31.208Z,97.80
2023-03-07T04:54:59.111Z,97.80
2023-03-07T04:57:27.161Z,97.80
2023-03-07T04:59:55.197Z,97.80
2023-03-07T05:02:24.774Z,97.70
2023-03-07T05:04:53.103Z,97.70
2023-03-07T05:07:21.101Z,97.60
2023-03-07T05:09:50.874Z,97.60
2023-03-07T05:12:18.893Z,97.60
2023-03-07T05:14:46.778Z,97.60
2023-03-07T05:17:15.343Z,97.50
2023-03-07T05:19:43.547Z,97.50
2023-03-07T05:22:11.464Z,97.40
2023-03-07T05:24:39.382Z,97.40
2023-03-07T05:27:09.037Z,97.40
2023-03-07T05:29:36.902Z,97.20
2023-03-07T05:32:05.240Z,97.20
2023-03-07T05:34:33.216Z,97.50
2023-03-07T05:37:01.262Z,97.20
2023-03-07T05:39:29.277Z,97.10
2023-03-07T05:41:58.208Z,97.00
2023-03-07T05:44:28.052Z,97.00
2023-03-07T05:46:57.121Z,97.00
2023-03-07T05:49:25.762Z,97.20
2023-03-07T05:51:53.730Z,96.80
2023-03-07T05:54:23.196Z,96.80
2023-03-07T05:56:51.095Z,96.70
2023-03-07T05:59:19.871Z,96.70
2023-03-07T06:01:51.429Z,96.50
2023-03-07T06:04:19.930Z,96.50
2023-03-07T06:06:47.863Z,96.50
2023-03-07T06:09:15.797Z,96.40
2023-03-07T06:11:44.244Z,96.30
2023-03-07T06:14:12.091Z,96.30
2023-03-07T06:16:39.949Z,96.20
2023-03-07T06:19:09.441Z,96.20
2023-03-07T06:21:37.965Z,96.10
2023-03-07T06:24:07.279Z,96.10
2023-03-07T06:26:35.309Z,96.00
2023-03-07T06:29:03.939Z,95.90
2023-03-07T06:31:32.288Z,96.00
2023-03-07T06:34:00.837Z,95.90
2023-03-07T06:36:30.378Z,95.90
2023-03-07T06:39:01.169Z,95.80
2023-03-07T06:41:29.704Z,95.80
2023-03-07T06:44:00.106Z,95.70
2023-03-07T06:46:31.237Z,95.70
2023-03-07T06:49:01.105Z,95.80
2023-03-07T06:51:30.742Z,95.60
2023-03-07T06:53:59.124Z,95.60
2023-03-07T06:56:29.746Z,95.60
2023-03-07T06:58:57.937Z,95.70
2023-03-07T07:01:26.612Z,95.70
2023-03-07T07:03:57.609Z,95.60
2023-03-07T07:06:26.263Z,95.70
2023-03-07T07:08:57.042Z,95.60
2023-03-07T07:11:28.189Z,95.50
2023-03-07T07:13:57.019Z,95.60
2023-03-07T07:16:25.591Z,95.50
2023-03-07T07:18:53.863Z,95.60
2023-03-07T07:21:23.183Z,95.80
2023-03-07T07:23:51.592Z,95.40
2023-03-07T07:26:21.419Z,95.40
2023-03-07T07:28:49.538Z,95.40
2023-03-07T07:31:17.427Z,95.40
2023-03-07T07:33:46.414Z,95.30
2023-03-07T07:36:16.011Z,95.40
2023-03-07T07:38:44.220Z,95.20
2023-03-07T07:41:13.356Z,95.20
2023-03-07T07:43:42.952Z,95.10
2023-03-07T07:46:22.086Z,94.90
2023-03-07T07:48:50.116Z,94.90
2023-03-07T07:51:18.621Z,94.90
2023-03-07T07:53:47.316Z,94.80
2023-03-07T07:56:15.621Z,94.60
2023-03-07T07:58:45.121Z,94.50
2023-03-07T08:01:14.928Z,94.40
2023-03-07T08:03:42.868Z,94.50
2023-03-07T08:06:10.792Z,94.20
2023-03-07T08:08:38.863Z,94.00
2023-03-07T08:11:07.227Z,93.70
2023-03-07T08:13:35.077Z,93.80
2023-03-07T08:16:11.510Z,93.70
2023-03-07T08:18:39.602Z,93.90
2023-03-07T08:21:08.590Z,93.50
2023-03-07T08:23:36.844Z,93.30
2023-03-07T08:26:06.396Z,93.20
2023-03-07T08:28:34.531Z,93.30
2023-03-07T08:31:07.861Z,93.30
2023-03-07T08:33:37.053Z,93.00
2023-03-07T08:36:05.533Z,93.00
2023-03-07T08:38:33.699Z,93.30
2023-03-07T08:41:03.778Z,92.80
2023-03-07T08:43:32.757Z,92.50
2023-03-07T08:46:01.217Z,92.50
2023-03-07T08:48:29.392Z,92.60
2023-03-07T08:50:58.891Z,92.40
2023-03-07T08:53:26.712Z,92.10
2023-03-07T08:55:54.659Z,92.20
2023-03-07T08:58:22.540Z,92.10
2023-03-07T09:00:50.372Z,92.00
2023-03-07T09:03:18.269Z,92.00
2023-03-07T09:05:46.137Z,92.10
2023-03-07T09:08:15.292Z,91.90
2023-03-07T09:10:43.488Z,91.70
2023-03-07T09:13:12.154Z,91.70
2023-03-07T09:15:40.770Z,91.70
2023-03-07T09:18:08.861Z,91.50
2023-03-07T09:20:38.739Z,91.40
2023-03-07T09:23:07.356Z,91.30
2023-03-07T09:25:37.620Z,91.10
2023-03-07T09:28:05.671Z,91.00
2023-03-07T09:30:33.547Z,91.00
2023-03-07T09:33:01.370Z,90.70
2023-03-07T09:35:29.479Z,90.70
2023-03-07T09:37:57.294Z,90.20
2023-03-07T09:40:27.882Z,90.10
2023-03-07T09:43:02.154Z,90.00
2023-03-07T09:45:47.528Z,90.10
2023-03-07T09:48:54.325Z,90.10
2023-03-07T09:51:26.999Z,90.10
2023-03-07T09:53:58.928Z,88.40
2023-03-07T09:56:31.257Z,87.80
2023-03-07T09:59:13.724Z,87.70
2023-03-07T10:01:50.996Z,86.70
2023-03-07T10:04:24.508Z,87.00
2023-03-07T10:06:58.351Z,86.60
2023-03-07T10:09:26.786Z,85.50
2023-03-07T10:12:10.564Z,85.50
2023-03-07T10:14:56.055Z,85.10
2023-03-07T10:17:36.162Z,84.90
2023-03-07T10:20:14.025Z,84.80
2023-03-07T10:22:49.549Z,84.10
2023-03-07T10:25:26.291Z,83.50
2023-03-07T10:28:01.257Z,83.10
2023-03-07T10:30:32.885Z,83.10
2023-03-07T10:33:01.689Z,82.60
2023-03-07T10:35:39.528Z,82.10
2023-03-07T10:38:19.844Z,81.90
2023-03-07T10:40:51.771Z,81.20
2023-03-07T10:43:24.877Z,80.70
2023-03-07T10:46:00.819Z,79.70
2023-03-07T10:48:31.064Z,79.60
2023-03-07T10:51:07.964Z,78.90
2023-03-07T10:53:39.116Z,77.90
2023-03-07T10:56:12.970Z,78.00
2023-03-07T10:58:41.361Z,78.00
2023-03-07T11:01:20.426Z,77.20
2023-03-07T11:03:55.407Z,77.00
2023-03-07T11:06:51.954Z,76.20
2023-03-07T11:09:25.641Z,77.10
2023-03-07T11:11:57.688Z,76.50
2023-03-07T11:14:28.564Z,76.50
2023-03-07T11:16:59.825Z,76.30
2023-03-07T11:19:37.446Z,75.80
2023-03-07T11:22:18.670Z,75.90
2023-03-07T11:25:00.182Z,75.90
2023-03-07T11:27:35.250Z,75.40
2023-03-07T11:30:25.357Z,74.70
2023-03-07T11:33:08.558Z,74.50
2023-03-07T11:35:59.989Z,74.30
2023-03-07T11:38:37.019Z,74.90
2023-03-07T11:41:11.052Z,74.40
2023-03-07T11:43:58.870Z,74.30
2023-03-07T11:46:45.962Z,74.60
2023-03-07T11:49:34.569Z,75.20
2023-03-07T11:52:16.997Z,75.20
2023-03-07T11:54:52.289Z,75.00
2023-03-07T11:57:36.710Z,75.50
2023-03-07T12:00:27.956Z,75.70
2023-03-07T12:03:28.940Z,76.10
2023-03-07T12:06:14.993Z,76.30
2023-03-07T12:08:56.872Z,76.10
2023-03-07T12:11:40.977Z,76.40
2023-03-07T12:14:22.366Z,75.10
2023-03-07T12:17:07.320Z,75.70
2023-03-07T12:19:53.291Z,75.70
2023-03-07T12:22:28.878Z,75.30
2023-03-07T12:25:14.762Z,75.30
2023-03-07T12:27:46.493Z,75.40
2023-03-07T12:30:19.425Z,75.60
2023-03-07T12:32:48.698Z,75.40
2023-03-07T12:35:24.831Z,75.40
2023-03-07T12:37:59.662Z,75.60
2023-03-07T12:40:34.928Z,76.10
2023-03-07T12:43:11.446Z,76.20
2023-03-07T12:45:46.599Z,76.00
2023-03-07T12:48:21.413Z,76.30
2023-03-07T12:50:55.953Z,76.50
2023-03-07T12:53:33.684Z,76.60
2023-03-07T12:56:06.308Z,76.90
2023-03-07T12:58:41.018Z,77.40
2023-03-07T13:01:14.416Z,77.50
2023-03-07T13:03:47.258Z,78.00
2023-03-07T13:06:18.708Z,78.30
2023-03-07T13:08:50.639Z,78.60
2023-03-07T13:11:21.705Z,78.80
2023-03-07T13:13:53.030Z,78.90
2023-03-07T13:16:41.674Z,79.10
2023-03-07T13:19:43.993Z,79.30
2023-03-07T13:22:49.713Z,79.40
2023-03-07T13:25:57.914Z,80.10
2023-03-07T13:28:53.058Z,80.40
2023-03-07T13:31:53.324Z,80.80
2023-03-07T13:34:48.729Z,81.20
2023-03-07T13:37:54.280Z,81.40
2023-03-07T13:40:55.095Z,81.70
2023-03-07T13:44:02.248Z,82.10
2023-03-07T13:46:48.526Z,82.40
2023-03-07T13:49:36.247Z,82.40
2023-03-07T13:52:38.089Z,82.30
2023-03-07T13:55:22.913Z,82.60
2023-03-07T13:57:51.818Z,82.10
2023-03-07T14:00:25.732Z,82.40
2023-03-07T14:02:55.623Z,82.60
2023-03-07T14:05:24.014Z,82.50
2023-03-07T14:07:53.404Z,82.50
2023-03-07T14:10:27.808Z,82.80
2023-03-07T14:13:22.708Z,84.10
2023-03-07T14:16:08.111Z,83.60
2023-03-07T14:18:56.797Z,83.90
2023-03-07T14:21:44.703Z,84.00
2023-03-07T14:24:41.713Z,84.30
2023-03-07T14:27:14.342Z,84.00
2023-03-07T14:29:50.813Z,84.10
2023-03-07T14:32:28.720Z,84.10
2023-03-07T14:34:57.352Z,83.80
2023-03-07T14:37:28.193Z,84.10
2023-03-07T14:40:10.618Z,84.40
2023-03-07T14:42:44.927Z,84.00
2023-03-07T14:45:25.796Z,84.20
2023-03-07T14:48:17.607Z,84.30
2023-03-07T14:50:46.510Z,84.30
2023-03-07T14:53:20.015Z,84.10
2023-03-07T14:55:50.878Z,84.50
2023-03-07T14:58:22.406Z,84.30
2023-03-07T15:00:59.138Z,83.40
2023-03-07T15:03:29.353Z,82.90
2023-03-07T15:05:59.082Z,82.10
2023-03-07T15:08:29.717Z,82.20
2023-03-07T15:11:04.723Z,81.20
2023-03-07T15:13:36.996Z,81.10
2023-03-07T15:16:09.385Z,80.90
2023-03-07T15:18:41.919Z,80.40
2023-03-07T15:21:17.692Z,80.20
2023-03-07T15:23:53.789Z,79.40
2023-03-07T15:26:24.763Z,79.80
2023-03-07T15:29:00.383Z,80.20
2023-03-07T15:31:31.843Z,81.30
2023-03-07T15:34:23.232Z,81.90
2023-03-07T15:36:51.220Z,82.10
2023-03-07T15:39:34.278Z,82.30
2023-03-07T15:42:04.829Z,82.00
2023-03-07T15:44:36.337Z,82.30
2023-03-07T15:47:13.702Z,81.90
2023-03-07T15:49:45.981Z,82.10
2023-03-07T15:52:23.614Z,82.10
2023-03-07T15:54:53.817Z,82.00
2023-03-07T15:57:24.335Z,82.20
2023-03-07T15:59:56.171Z,81.80
2023-03-07T16:02:37.644Z,81.40
2023-03-07T16:05:27.033Z,81.80
2023-03-07T16:07:56.695Z,81.60
2023-03-07T16:10:28.893Z,80.90
2023-03-07T16:12:57.598Z,80.50
2023-03-07T16:15:25.923Z,80.70
2023-03-07T16:17:56.502Z,80.60
2023-03-07T16:20:27.647Z,80.80
2023-03-07T16:22:56.050Z,80.90
2023-03-07T16:25:27.696Z,81.20
2023-03-07T16:27:59.042Z,81.50
2023-03-07T16:30:29.069Z,81.80
2023-03-07T16:32:56.961Z,81.70
2023-03-07T16:35:28.656Z,81.80
2023-03-07T16:37:57.088Z,82.00
2023-03-07T16:40:26.193Z,81.80
2023-03-07T16:42:54.674Z,82.00
2023-03-07T16:45:24.705Z,81.80
2023-03-07T16:47:54.155Z,81.70
2023-03-07T16:50:25.488Z,81.70
2023-03-07T16:52:54.682Z,81.70
2023-03-07T16:55:23.265Z,81.90
2023-03-07T16:57:55.913Z,81.90
2023-03-07T17:00:25.789Z,82.00
2023-03-07T17:02:55.302Z,82.20
2023-03-07T17:05:25.579Z,82.30
2023-03-07T17:07:55.818Z,82.60
2023-03-07T17:10:26.310Z,83.00
2023-03-07T17:12:55.034Z,83.20
2023-03-07T17:15:26.304Z,83.30
2023-03-07T17:17:55.733Z,83.50
2023-03-07T17:20:24.521Z,83.70
2023-03-07T17:22:54.434Z,83.60
2023-03-07T17:25:23.766Z,83.70
2023-03-07T17:27:56.060Z,83.60
2023-03-07T17:30:25.952Z,83.70
2023-03-07T17:32:54.193Z,83.80
2023-03-07T17:35:22.628Z,83.70
2023-03-07T17:37:52.968Z,83.70
2023-03-07T17:40:23.476Z,83.80
2023-03-07T17:42:54.700Z,83.90
2023-03-07T17:45:23.000Z,83.80
2023-03-07T17:47:51.858Z,83.90
2023-03-07T17:50:23.753Z,83.90
2023-03-07T17:52:52.389Z,83.90
2023-03-07T17:55:24.074Z,83.90
2023-03-07T17:57:52.129Z,83.90
2023-03-07T18:00:21.628Z,83.80
2023-03-07T18:02:49.788Z,83.70
2023-03-07T18:05:19.442Z,83.70
2023-03-07T18:07:47.338Z,83.30
2023-03-07T18:10:15.169Z,83.40
2023-03-07T18:12:44.666Z,83.20
2023-03-07T18:15:15.454Z,83.10
2023-03-07T18:17:48.461Z,83.00
2023-03-07T18:20:18.329Z,82.80
2023-03-07T18:22:47.001Z,82.80
2023-03-07T18:25:17.078Z,82.60
2023-03-07T18:27:46.839Z,82.60
2023-03-07T18:30:17.255Z,82.40
2023-03-07T18:32:45.296Z,82.70
2023-03-07T18:35:15.405Z,82.60
2023-03-07T18:37:45.273Z,82.30
2023-03-07T18:40:14.746Z,82.40
2023-03-07T18:42:43.256Z,82.30
2023-03-07T18:45:13.538Z,82.50
2023-03-07T18:47:41.489Z,82.60
2023-03-07T18:50:10.989Z,82.40
2023-03-07T18:52:38.911Z,82.60
2023-03-07T18:55:07.334Z,82.60
2023-03-07T18:57:35.214Z,82.70
2023-03-07T19:00:04.356Z,82.50
2023-03-07T19:02:34.209Z,82.90
2023-03-07T19:05:02.160Z,82.90
2023-03-07T19:07:31.387Z,82.70
2023-03-07T19:09:59.489Z,82.80
2023-03-07T19:12:27.349Z,82.70
2023-03-07T19:14:55.753Z,82.80
2023-03-07T19:17:25.268Z,83.00
2023-03-07T19:19:59.060Z,83.00
2023-03-07T19:22:30.124Z,83.10
2023-03-07T19:24:58.001Z,83.20
2023-03-07T19:27:27.618Z,83.20
2023-03-07T19:29:55.473Z,83.20
2023-03-07T19:32:23.423Z,83.40
2023-03-07T19:34:51.324Z,83.40
2023-03-07T19:37:20.566Z,83.40
2023-03-07T19:39:52.125Z,84.10
2023-03-07T19:42:20.169Z,83.60
2023-03-07T19:44:48.353Z,83.70
2023-03-07T19:47:16.186Z,83.70
2023-03-07T19:49:44.199Z,83.80
2023-03-07T19:52:12.671Z,84.00
2023-03-07T19:54:41.932Z,84.30
2023-03-07T19:57:14.788Z,84.30
2023-03-07T19:59:42.805Z,84.30
2023-03-07T20:02:13.431Z,84.20
2023-03-07T20:04:41.421Z,84.30
2023-03-07T20:07:09.327Z,84.30
2023-03-07T20:09:37.545Z,85.60
2023-03-07T20:12:07.881Z,87.90
2023-03-07T20:14:42.373Z,87.70
2023-03-07T20:17:11.279Z,87.40
2023-03-07T20:19:39.334Z,88.60
2023-03-07T20:22:07.596Z,88.20
2023-03-07T20:24:36.616Z,88.40
2023-03-07T20:27:06.165Z,89.40
2023-03-07T20:29:34.147Z,90.80
2023-03-07T20:32:02.295Z,92.00
2023-03-07T20:34:30.153Z,92.50
2023-03-07T20:36:58.261Z,93.00
2023-03-07T20:39:26.158Z,94.00
2023-03-07T20:41:54.016Z,95.10
2023-03-07T20:44:23.238Z,94.60
2023-03-07T20:46:51.366Z,95.00
2023-03-07T20:49:19.245Z,95.10
2023-03-07T20:51:48.731Z,96.10
2023-03-07T20:54:18.738Z,97.10
2023-03-07T20:56:47.940Z,98.00
2023-03-07T20:59:18.417Z,98.00
2023-03-07T21:01:48.894Z,98.20
2023-03-07T21:04:20.344Z,98.10
2023-03-07T21:06:49.701Z,98.50
2023-03-07T21:09:18.867Z,99.10
2023-03-07T21:11:48.992Z,99.50
2023-03-07T21:14:18.928Z,99.90
2023-03-07T21:16:48.610Z,99.90
2023-03-07T21:19:16.623Z,99.90
2023-03-07T21:21:45.056Z,99.90
2023-03-07T21:24:14.725Z,99.90
2023-03-07T21:26:42.662Z,99.90
2023-03-07T21:29:11.170Z,99.90
2023-03-07T21:31:39.541Z,99.90
2023-03-07T21:34:11.422Z,99.90
2023-03-07T21:36:39.926Z,99.90
2023-03-07T21:39:09.751Z,99.90
2023-03-07T21:41:37.790Z,99.90
2023-03-07T21:44:06.108Z,99.90
2023-03-07T21:46:34.129Z,99.90
2023-03-07T21:49:02.715Z,99.90
2023-03-07T21:51:34.632Z,99.90
2023-03-07T21:54:02.481Z,99.90
2023-03-07T21:56:30.304Z,99.90
2023-03-07T21:58:58.184Z,99.90
2023-03-07T22:01:28.066Z,99.90
2023-03-07T22:03:58.181Z,99.90
2023-03-07T22:06:26.741Z,99.90
2023-03-07T22:08:56.601Z,99.90
2023-03-07T22:11:24.427Z,99.90
2023-03-07T22:13:52.247Z,99.90
2023-03-07T22:16:21.514Z,99.90
2023-03-07T22:18:53.834Z,99.90
2023-03-07T22:21:24.754Z,99.90
2023-03-07T22:23:53.004Z,99.90
2023-03-07T22:26:22.219Z,99.90
2023-03-07T22:28:50.088Z,99.90
2023-03-07T22:31:17.951Z,99.90
2023-03-07T22:33:45.800Z,99.90
2023-03-07T22:36:14.717Z,99.90
2023-03-07T22:38:43.451Z,99.90
2023-03-07T22:41:13.816Z,99.90
2023-03-07T22:43:43.311Z,99.90
2023-03-07T22:46:11.979Z,99.90
2023-03-07T22:48:39.992Z,99.90
2023-03-07T22:51:13.231Z,99.90
2023-03-07T22:53:41.266Z,99.90
2023-03-07T22:56:15.771Z,99.90
2023-03-07T22:58:45.064Z,99.90
